Time,TemperatureF,DewpointF,PressureIn,WindDirection,WindDirectionDegrees,WindSpeedMPH,WindSpeedGustMPH,Humidity,HourlyPrecipIn,Conditions,Clouds,dailyrainin,SoftwareType,DateUTC
2013-02-25 00:00:00,34.4,32.0,30.46,East,86,1.1,1.1,91,0.00,RA,,0.00,WeatherDisplay:10.37,2013-02-25 00:00:00,
2013-02-25 00:05:00,34.4,32.0,30.46,East,85,1.1,0.0,91,0.00,RA,,0.00,WeatherDisplay:10.37,2013-02-25 00:05:00,
2013-02-25 00:10:00,34.3,32.2,30.46,East,85,0.0,0.0,92,0.00,CLR,,0.00,WeatherDisplay:10.37,2013-02-25 00:10:00,
2013-02-25 00:15:00,34.3,31.9,30.45,East,86,0.0,0.0,91,0.00,CLR,,0.00,WeatherDisplay:10.37,2013-02-25 00:15:00,
2013-02-25 00:20:00,34.1,31.7,30.45,East,86,0.0,0.0,91,0.00,CLR,,0.00,WeatherDisplay:10.37,2013-02-25 00:20:00,
2013-02-25 00:25:00,34.0,31.9,30.45,East,85,0.0,0.0,92,0.00,CLR,,0.00,WeatherDisplay:10.37,2013-02-25 00:25:00,
2013-02-25 00:30:00,33.8,31.7,30.45,East,85,0.0,0.0,92,0.00,CLR,,0.00,WeatherDisplay:10.37,2013-02-25 00:30:00,
2013-02-25 00:35:00,33.7,31.6,30.45,East,86,0.0,0.0,92,0.00,CLR,,0.00,WeatherDisplay:10.37,2013-02-25 00:35:00,
2013-02-25 00:40:00,33.5,31.2,30.45,East,86,0.0,0.0,91,0.00,CLR,,0.00,WeatherDisplay:10.37,2013-02-25 00:40:00,
2013-02-25 00:45:00,33.3,31.0,30.45,East,86,0.0,0.0,91,0.00,CLR,,0.00,WeatherDisplay:10.37,2013-02-25 00:45:00,
2013-02-25 00:50:00,33.2,30.9,30.45,East,85,0.0,0.0,91,0.00,CLR,,0.00,WeatherDisplay:10.37,2013-02-25 00:50:00,
2013-02-25 00:56:00,33.0,30.7,30.45,East,85,2.3,2.3,91,0.00,CLR,,0.00,WeatherDisplay:10.37,2013-02-25 00:56:00,
2013-02-25 01:01:00,32.8,30.5,30.46,East,85,0.0,0.0,91,0.00,CLR,,0.00,WeatherDisplay:10.37,2013-02-25 01:01:00,
2013-02-25 01:06:00,32.7,30.4,30.46,East,85,0.0,0.0,91,0.00,CLR,,0.00,WeatherDisplay:10.37,2013-02-25 01:06:00,
2013-02-25 01:11:00,32.5,30.2,30.46,East,85,0.0,0.0,91,0.00,CLR,,0.00,WeatherDisplay:10.37,2013-02-25 01:11:00,
2013-02-25 01:16:00,32.2,29.9,30.46,East,85,2.3,2.3,91,0.00,CLR,,0.00,WeatherDisplay:10.37,2013-02-25 01:16:00,
2013-02-25 01:21:00,32.0,29.7,30.46,East,86,0.0,0.0,91,0.00,CLR,,0.00,WeatherDisplay:10.37,2013-02-25 01:21:00,
2013-02-25 01:26:00,31.8,29.5,30.46,East,84,0.0,0.0,91,0.00,CLR,,0.00,WeatherDisplay:10.37,2013-02-25 01:26:00,
2013-02-25 01:31:00,31.7,29.4,30.46,East,85,0.0,0.0,91,0.00,CLR,,0.00,WeatherDisplay:10.37,2013-02-25 01:31:00,
2013-02-25 01:36:00,31.5,29.4,30.46,East,85,0.0,0.0,92,0.00,CLR,,0.00,WeatherDisplay:10.37,2013-02-25 01:36:00,
2013-02-25 01:41:00,31.3,29.2,30.46,East,85,0.0,0.0,92,0.00,CLR,,0.00,WeatherDisplay:10.37,2013-02-25 01:41:00,
2013-02-25 01:46:00,31.2,29.1,30.46,East,85,0.0,0.0,92,0.00,CLR,,0.00,WeatherDisplay:10.37,2013-02-25 01:46:00,
2013-02-25 01:51:00,31.0,28.9,30.46,East,85,0.0,0.0,92,0.00,CLR,,0.00,WeatherDisplay:10.37,2013-02-25 01:51:00,
2013-02-25 01:56:00,31.0,28.9,30.46,East,85,0.0,0.0,92,0.00,CLR,,0.00,WeatherDisplay:10.37,2013-02-25 01:56:00,
2013-02-25 02:01:00,30.8,28.8,30.46,East,86,0.0,0.0,92,0.00,CLR,,0.00,WeatherDisplay:10.37,2013-02-25 02:01:00,
2013-02-25 02:06:00,30.7,28.7,30.46,East,85,0.0,0.0,92,0.00,CLR,,0.00,WeatherDisplay:10.37,2013-02-25 02:06:00,
2013-02-25 02:11:00,30.6,28.6,30.46,East,85,0.0,0.0,92,0.00,CLR,,0.00,WeatherDisplay:10.37,2013-02-25 02:11:00,
2013-02-25 02:16:00,30.6,28.8,30.46,East,85,0.0,0.0,93,0.00,CLR,,0.00,WeatherDisplay:10.37,2013-02-25 02:16:00,
2013-02-25 02:21:00,30.5,28.5,30.46,East,85,2.3,2.3,92,0.00,CLR,,0.00,WeatherDisplay:10.37,2013-02-25 02:21:00,
2013-02-25 02:26:00,30.5,28.7,30.46,East,85,2.3,2.3,93,0.00,CLR,,0.00,WeatherDisplay:10.37,2013-02-25 02:26:00,
2013-02-25 02:31:00,30.5,28.7,30.46,East,85,0.0,0.0,93,0.00,CLR,,0.00,WeatherDisplay:10.37,2013-02-25 02:31:00,
2013-02-25 02:36:00,30.5,28.7,30.46,East,86,2.3,2.3,93,0.00,CLR,,0.00,WeatherDisplay:10.37,2013-02-25 02:36:00,
2013-02-25 02:41:00,30.5,28.7,30.46,East,86,0.0,0.0,93,0.00,CLR,,0.00,WeatherDisplay:10.37,2013-02-25 02:41:00,
2013-02-25 02:46:00,30.6,28.8,30.46,East,85,0.0,0.0,93,0.00,CLR,,0.00,WeatherDisplay:10.37,2013-02-25 02:46:00,
2013-02-25 02:51:00,30.6,28.8,30.46,East,85,0.0,0.0,93,0.00,CLR,,0.00,WeatherDisplay:10.37,2013-02-25 02:51:00,
2013-02-25 02:56:00,30.6,28.8,30.46,East,85,0.0,0.0,93,0.00,CLR,,0.00,WeatherDisplay:10.37,2013-02-25 02:56:00,
2013-02-25 03:01:00,30.8,29.3,30.47,East,85,0.0,0.0,94,0.00,CLR,,0.00,WeatherDisplay:10.37,2013-02-25 03:01:00,
2013-02-25 03:06:00,31.0,29.5,30.47,East,85,0.0,0.0,94,0.00,CLR,,0.00,WeatherDisplay:10.37,2013-02-25 03:06:00,
2013-02-25 03:11:00,31.1,29.6,30.47,East,85,0.0,0.0,94,0.00,CLR,,0.00,WeatherDisplay:10.37,2013-02-25 03:11:00,
2013-02-25 03:16:00,31.2,29.7,30.48,East,84,0.0,0.0,94,0.00,CLR,,0.00,WeatherDisplay:10.37,2013-02-25 03:16:00,
2013-02-25 03:21:00,31.3,29.8,30.48,East,86,0.0,0.0,94,0.00,CLR,,0.00,WeatherDisplay:10.37,2013-02-25 03:21:00,
2013-02-25 03:26:00,31.4,29.9,30.48,East,85,0.0,0.0,94,0.00,CLR,,0.00,WeatherDisplay:10.37,2013-02-25 03:26:00,
2013-02-25 03:31:00,31.7,30.2,30.48,East,85,0.0,0.0,94,0.00,CLR,,0.00,WeatherDisplay:10.37,2013-02-25 03:31:00,
2013-02-25 03:36:00,31.8,30.3,30.48,East,86,1.1,0.0,94,0.00,CLR,,0.00,WeatherDisplay:10.37,2013-02-25 03:36:00,
2013-02-25 03:41:00,32.0,30.7,30.48,East,85,1.1,1.1,95,0.00,CLR,,0.00,WeatherDisplay:10.37,2013-02-25 03:41:00,
2013-02-25 03:46:00,32.0,30.5,30.49,East,85,0.0,0.0,94,0.00,CLR,,0.00,WeatherDisplay:10.37,2013-02-25 03:46:00,
2013-02-25 03:51:00,32.1,30.6,30.49,East,85,0.0,0.0,94,0.00,CLR,,0.00,WeatherDisplay:10.37,2013-02-25 03:51:00,
2013-02-25 03:56:00,32.2,30.7,30.49,East,85,0.0,0.0,94,0.00,CLR,,0.00,WeatherDisplay:10.37,2013-02-25 03:56:00,
2013-02-25 04:01:00,32.2,30.7,30.49,East,85,1.1,0.0,94,0.00,CLR,,0.00,WeatherDisplay:10.37,2013-02-25 04:01:00,
2013-02-25 04:06:00,32.2,30.7,30.49,East,84,2.0,2.0,94,0.00,CLR,,0.00,WeatherDisplay:10.37,2013-02-25 04:06:00,
2013-02-25 04:11:00,32.2,30.7,30.49,East,85,1.1,1.1,94,0.00,CLR,,0.00,WeatherDisplay:10.37,2013-02-25 04:11:00,
2013-02-25 04:16:00,32.1,30.6,30.50,East,85,0.0,0.0,94,0.00,CLR,,0.00,WeatherDisplay:10.37,2013-02-25 04:16:00,
2013-02-25 04:21:00,32.0,30.5,30.50,East,86,0.0,0.0,94,0.00,CLR,,0.00,WeatherDisplay:10.37,2013-02-25 04:21:00,
2013-02-25 04:26:00,31.9,30.4,30.50,East,86,0.0,0.0,94,0.00,CLR,,0.00,WeatherDisplay:10.37,2013-02-25 04:26:00,
2013-02-25 04:31:00,31.8,30.3,30.50,East,85,0.0,0.0,94,0.00,CLR,,0.00,WeatherDisplay:10.37,2013-02-25 04:31:00,
2013-02-25 04:36:00,31.7,30.2,30.50,East,85,0.0,0.0,94,0.00,CLR,,0.00,WeatherDisplay:10.37,2013-02-25 04:36:00,
2013-02-25 04:41:00,31.6,30.1,30.50,East,85,0.0,0.0,94,0.00,CLR,,0.00,WeatherDisplay:10.37,2013-02-25 04:41:00,
2013-02-25 04:46:00,31.4,29.9,30.50,East,86,0.0,0.0,94,0.00,CLR,,0.00,WeatherDisplay:10.37,2013-02-25 04:46:00,
2013-02-25 04:51:00,31.3,29.8,30.50,East,85,0.0,0.0,94,0.00,CLR,,0.00,WeatherDisplay:10.37,2013-02-25 04:51:00,
2013-02-25 04:56:00,31.1,29.3,30.50,East,85,0.0,0.0,93,0.00,CLR,,0.00,WeatherDisplay:10.37,2013-02-25 04:56:00,
2013-02-25 05:00:00,31.1,29.6,30.49,East,85,0.0,0.0,94,0.00,CLR,,0.00,WeatherDisplay:10.37,2013-02-25 05:00:00,
2013-02-25 05:02:00,31.0,29.5,30.49,East,86,0.0,0.0,94,0.00,CLR,,0.00,WeatherDisplay:10.37,2013-02-25 05:02:00,
2013-02-25 05:03:00,31.0,29.5,30.49,East,85,0.0,0.0,94,0.00,CLR,,0.00,WeatherDisplay:10.37,2013-02-25 05:03:00,
2013-02-25 05:08:00,30.9,29.4,30.49,East,85,0.0,0.0,94,0.00,CLR,,0.00,WeatherDisplay:10.37,2013-02-25 05:08:00,
2013-02-25 05:13:00,30.8,29.3,30.49,East,85,0.0,0.0,94,0.00,CLR,,0.00,WeatherDisplay:10.37,2013-02-25 05:13:00,
2013-02-25 05:18:00,30.7,29.2,30.50,East,85,0.0,0.0,94,0.00,CLR,,0.00,WeatherDisplay:10.37,2013-02-25 05:18:00,
2013-02-25 05:23:00,30.6,29.1,30.50,East,86,0.0,0.0,94,0.00,CLR,,0.00,WeatherDisplay:10.37,2013-02-25 05:23:00,
2013-02-25 05:28:00,30.6,29.1,30.50,East,85,1.1,1.1,94,0.00,CLR,,0.00,WeatherDisplay:10.37,2013-02-25 05:28:00,
2013-02-25 05:33:00,30.5,29.0,30.49,East,86,0.0,0.0,94,0.00,CLR,,0.00,WeatherDisplay:10.37,2013-02-25 05:33:00,
2013-02-25 05:38:00,30.4,28.9,30.49,East,85,0.0,0.0,94,0.00,CLR,,0.00,WeatherDisplay:10.37,2013-02-25 05:38:00,
2013-02-25 05:43:00,30.3,28.8,30.49,East,85,0.0,0.1,94,0.00,CLR,,0.00,WeatherDisplay:10.37,2013-02-25 05:43:00,
2013-02-25 05:48:00,30.2,28.7,30.49,East,85,0.0,0.0,94,0.00,CLR,,0.00,WeatherDisplay:10.37,2013-02-25 05:48:00,
2013-02-25 05:53:00,30.1,28.3,30.49,East,85,0.0,0.0,93,0.00,CLR,,0.00,WeatherDisplay:10.37,2013-02-25 05:53:00,
2013-02-25 05:58:00,30.0,28.5,30.49,East,85,0.0,0.0,94,0.00,CLR,,0.00,WeatherDisplay:10.37,2013-02-25 05:58:00,
2013-02-25 06:03:00,29.9,28.4,30.50,East,86,0.0,0.0,94,0.00,CLR,,0.00,WeatherDisplay:10.37,2013-02-25 06:03:00,
2013-02-25 06:08:00,29.8,28.3,30.50,East,86,1.0,1.0,94,0.00,CLR,,0.00,WeatherDisplay:10.37,2013-02-25 06:08:00,
2013-02-25 06:13:00,29.8,28.3,30.50,East,85,0.0,0.0,94,0.00,CLR,,0.00,WeatherDisplay:10.37,2013-02-25 06:13:00,
2013-02-25 06:18:00,29.7,28.2,30.50,East,85,0.0,0.0,94,0.00,CLR,,0.00,WeatherDisplay:10.37,2013-02-25 06:18:00,
2013-02-25 06:23:00,29.6,28.1,30.50,East,85,0.0,0.0,94,0.00,CLR,,0.00,WeatherDisplay:10.37,2013-02-25 06:23:00,
2013-02-25 06:28:00,29.5,28.0,30.50,East,85,0.0,0.0,94,0.00,CLR,,0.00,WeatherDisplay:10.37,2013-02-25 06:28:00,
2013-02-25 06:33:00,29.4,27.9,30.51,East,86,0.0,0.0,94,0.00,CLR,,0.00,WeatherDisplay:10.37,2013-02-25 06:33:00,
2013-02-25 06:38:00,29.3,27.8,30.51,East,86,0.0,0.0,94,0.00,CLR,,0.00,WeatherDisplay:10.37,2013-02-25 06:38:00,
2013-02-25 06:43:00,29.2,27.7,30.51,East,85,0.0,0.0,94,0.00,CLR,,0.00,WeatherDisplay:10.37,2013-02-25 06:43:00,
2013-02-25 06:48:00,29.1,27.6,30.51,East,86,2.3,2.3,94,0.00,CLR,,0.00,WeatherDisplay:10.37,2013-02-25 06:48:00,
2013-02-25 06:53:00,29.1,27.6,30.51,East,85,2.3,2.3,94,0.00,CLR,,0.00,WeatherDisplay:10.37,2013-02-25 06:53:00,
2013-02-25 06:58:00,29.1,27.6,30.51,East,85,0.0,0.0,94,0.00,CLR,,0.00,WeatherDisplay:10.37,2013-02-25 06:58:00,
2013-02-25 07:03:00,29.1,27.6,30.52,East,85,0.0,0.0,94,0.00,CLR,,0.00,WeatherDisplay:10.37,2013-02-25 07:03:00,
2013-02-25 07:08:00,29.0,27.5,30.52,East,86,0.0,0.0,94,0.00,CLR,,0.00,WeatherDisplay:10.37,2013-02-25 07:08:00,
2013-02-25 07:13:00,28.9,27.4,30.52,East,96,0.0,0.0,94,0.00,CLR,,0.00,WeatherDisplay:10.37,2013-02-25 07:13:00,
2013-02-25 07:18:00,28.8,27.3,30.52,NNE,12,1.1,1.1,94,0.00,CLR,,0.00,WeatherDisplay:10.37,2013-02-25 07:18:00,
2013-02-25 07:23:00,28.8,27.3,30.52,ENE,65,0.0,0.0,94,0.00,CLR,,0.00,WeatherDisplay:10.37,2013-02-25 07:23:00,
2013-02-25 07:28:00,28.7,27.2,30.52,NNE,12,1.1,1.1,94,0.00,CLR,,0.00,WeatherDisplay:10.37,2013-02-25 07:28:00,
2013-02-25 07:33:00,28.6,27.1,30.52,ENE,59,0.0,0.0,94,0.00,CLR,,0.00,WeatherDisplay:10.37,2013-02-25 07:33:00,
2013-02-25 07:38:00,28.5,27.0,30.52,SSE,159,1.0,0.0,94,0.00,CLR,,0.00,WeatherDisplay:10.37,2013-02-25 07:38:00,
2013-02-25 07:43:00,28.5,27.0,30.52,South,180,0.0,0.0,94,0.00,CLR,,0.00,WeatherDisplay:10.37,2013-02-25 07:43:00,
2013-02-25 07:48:00,28.5,27.0,30.53,SW,221,0.0,0.0,94,0.00,CLR,,0.00,WeatherDisplay:10.37,2013-02-25 07:48:00,
2013-02-25 07:53:00,28.5,27.0,30.53,SW,225,0.0,0.0,94,0.00,CLR,,0.00,WeatherDisplay:10.37,2013-02-25 07:53:00,
2013-02-25 07:58:00,28.5,27.0,30.53,SSW,209,0.0,0.0,94,0.00,CLR,,0.00,WeatherDisplay:10.37,2013-02-25 07:58:00,
2013-02-25 08:03:00,28.7,27.2,30.53,SSW,204,1.1,0.0,94,0.00,CLR,,0.00,WeatherDisplay:10.37,2013-02-25 08:03:00,
2013-02-25 08:08:00,28.7,27.2,30.53,SSW,211,0.0,0.0,94,0.00,CLR,,0.00,WeatherDisplay:10.37,2013-02-25 08:08:00,
2013-02-25 08:13:00,28.8,27.3,30.53,SSE,164,0.0,0.0,94,0.00,CLR,,0.00,WeatherDisplay:10.37,2013-02-25 08:13:00,
2013-02-25 08:18:00,28.9,27.4,30.54,SSE,164,0.0,0.0,94,0.00,CLR,,0.00,WeatherDisplay:10.37,2013-02-25 08:18:00,
2013-02-25 08:23:00,29.0,27.5,30.54,SSE,165,0.0,0.0,94,0.00,CLR,,0.00,WeatherDisplay:10.37,2013-02-25 08:23:00,
2013-02-25 08:28:00,29.1,27.8,30.54,SE,136,1.1,0.0,95,0.00,CLR,,0.00,WeatherDisplay:10.37,2013-02-25 08:28:00,
2013-02-25 08:33:00,29.3,28.0,30.54,East,86,2.3,2.3,95,0.00,CLR,,0.00,WeatherDisplay:10.37,2013-02-25 08:33:00,
2013-02-25 08:38:00,29.4,28.1,30.54,North,360,1.1,1.1,95,0.00,CLR,,0.00,WeatherDisplay:10.37,2013-02-25 08:38:00,
2013-02-25 08:43:00,29.6,28.3,30.54,North,355,0.0,0.0,95,0.00,CLR,,0.00,WeatherDisplay:10.37,2013-02-25 08:43:00,
2013-02-25 08:48:00,29.9,28.6,30.54,West,278,1.1,1.1,95,0.00,CLR,,0.00,WeatherDisplay:10.37,2013-02-25 08:48:00,
2013-02-25 08:53:00,30.3,29.0,30.54,SSW,213,0.0,0.0,95,0.00,CLR,,0.00,WeatherDisplay:10.37,2013-02-25 08:53:00,
2013-02-25 08:58:00,30.6,29.3,30.54,SSW,213,0.0,0.0,95,0.00,CLR,,0.00,WeatherDisplay:10.37,2013-02-25 08:58:00,
2013-02-25 09:03:00,30.8,29.5,30.54,SSW,201,0.0,0.0,95,0.00,CLR,,0.00,WeatherDisplay:10.37,2013-02-25 09:03:00,
2013-02-25 09:08:00,31.1,29.8,30.54,SSW,201,0.0,0.0,95,0.00,CLR,,0.00,WeatherDisplay:10.37,2013-02-25 09:08:00,
2013-02-25 09:13:00,31.5,30.2,30.54,SSW,202,2.3,2.3,95,0.00,CLR,,0.00,WeatherDisplay:10.37,2013-02-25 09:13:00,
2013-02-25 09:18:00,32.0,30.7,30.55,SSE,168,1.1,0.0,95,0.00,CLR,,0.00,WeatherDisplay:10.37,2013-02-25 09:18:00,
2013-02-25 09:23:00,32.3,31.0,30.55,SSE,168,0.0,0.0,95,0.00,CLR,,0.00,WeatherDisplay:10.37,2013-02-25 09:23:00,
2013-02-25 09:28:00,32.5,31.2,30.55,SSE,168,1.1,0.0,95,0.00,CLR,,0.00,WeatherDisplay:10.37,2013-02-25 09:28:00,
2013-02-25 09:33:00,32.8,31.5,30.55,SSW,204,1.1,1.1,95,0.00,CLR,,0.00,WeatherDisplay:10.37,2013-02-25 09:33:00,
2013-02-25 09:38:00,33.2,31.9,30.55,SSW,204,2.3,2.3,95,0.00,CLR,,0.00,WeatherDisplay:10.37,2013-02-25 09:38:00,
2013-02-25 09:43:00,33.5,32.2,30.55,WNW,286,2.3,2.3,95,0.00,CLR,,0.00,WeatherDisplay:10.37,2013-02-25 09:43:00,
2013-02-25 09:48:00,33.8,32.5,30.55,NW,311,3.0,3.0,95,0.00,CLR,,0.00,WeatherDisplay:10.37,2013-02-25 09:48:00,
2013-02-25 09:53:00,34.0,32.7,30.55,West,265,1.1,1.1,95,0.00,CLR,,0.00,WeatherDisplay:10.37,2013-02-25 09:53:00,
2013-02-25 09:58:00,34.3,33.0,30.55,West,265,3.5,3.5,95,0.00,CLR,,0.00,WeatherDisplay:10.37,2013-02-25 09:58:00,
2013-02-25 10:03:00,34.5,33.2,30.55,West,265,0.0,0.0,95,0.00,CLR,,0.00,WeatherDisplay:10.37,2013-02-25 10:03:00,
2013-02-25 10:08:00,34.6,33.3,30.55,West,265,0.0,0.0,95,0.00,CLR,,0.00,WeatherDisplay:10.37,2013-02-25 10:08:00,
2013-02-25 10:13:00,34.7,33.2,30.55,West,265,1.1,1.1,94,0.00,CLR,,0.00,WeatherDisplay:10.37,2013-02-25 10:13:00,
2013-02-25 10:18:00,34.8,33.5,30.55,West,265,0.0,0.0,95,0.00,CLR,,0.00,WeatherDisplay:10.37,2013-02-25 10:18:00,
2013-02-25 10:23:00,34.9,33.3,30.55,West,265,0.0,0.0,94,0.00,CLR,,0.00,WeatherDisplay:10.37,2013-02-25 10:23:00,
2013-02-25 10:28:00,35.1,33.5,30.55,West,265,0.0,0.0,94,0.00,CLR,,0.00,WeatherDisplay:10.37,2013-02-25 10:28:00,
2013-02-25 10:33:00,35.3,34.0,30.55,West,264,0.0,0.0,95,0.00,CLR,,0.00,WeatherDisplay:10.37,2013-02-25 10:33:00,
2013-02-25 10:38:00,35.5,34.2,30.55,West,265,0.0,0.0,95,0.00,CLR,,0.00,WeatherDisplay:10.37,2013-02-25 10:38:00,
2013-02-25 10:43:00,36.0,34.7,30.55,West,264,0.0,0.0,95,0.00,CLR,,0.00,WeatherDisplay:10.37,2013-02-25 10:43:00,
2013-02-25 10:48:00,36.9,35.6,30.55,West,265,0.0,0.0,95,0.00,CLR,,0.00,WeatherDisplay:10.37,2013-02-25 10:48:00,
2013-02-25 10:53:00,38.2,36.9,30.55,West,265,3.5,3.5,95,0.01,RA,,0.01,WeatherDisplay:10.37,2013-02-25 10:53:00,
2013-02-25 10:58:00,39.2,37.6,30.55,NE,51,4.6,4.6,94,0.01,RA,,0.01,WeatherDisplay:10.37,2013-02-25 10:58:00,
2013-02-25 11:03:00,40.1,37.7,30.55,NE,51,0.0,0.0,91,0.01,CLR,,0.01,WeatherDisplay:10.37,2013-02-25 11:03:00,
2013-02-25 11:08:00,40.9,37.6,30.55,ENE,61,3.0,3.0,88,0.01,CLR,,0.01,WeatherDisplay:10.37,2013-02-25 11:08:00,
2013-02-25 11:13:00,41.6,38.3,30.55,ENE,61,1.0,0.0,88,0.01,CLR,,0.01,WeatherDisplay:10.37,2013-02-25 11:13:00,
2013-02-25 11:18:00,42.3,38.4,30.55,ENE,61,2.3,2.3,86,0.01,CLR,,0.01,WeatherDisplay:10.37,2013-02-25 11:18:00,
2013-02-25 11:23:00,43.1,38.6,30.55,ENE,61,3.5,3.5,84,0.01,CLR,,0.01,WeatherDisplay:10.37,2013-02-25 11:23:00,
2013-02-25 11:28:00,43.8,38.7,30.55,ENE,61,1.1,0.0,82,0.01,CLR,,0.01,WeatherDisplay:10.37,2013-02-25 11:28:00,
2013-02-25 11:34:00,44.8,39.3,30.55,ENE,65,5.8,5.8,81,0.01,CLR,,0.01,WeatherDisplay:10.37,2013-02-25 11:34:00,
2013-02-25 11:39:00,45.4,39.3,30.55,East,94,3.5,3.5,79,0.01,CLR,,0.01,WeatherDisplay:10.37,2013-02-25 11:39:00,
2013-02-25 11:44:00,45.7,39.6,30.56,East,94,3.5,3.5,79,0.01,CLR,,0.01,WeatherDisplay:10.37,2013-02-25 11:44:00,
2013-02-25 11:49:00,45.7,38.9,30.56,ESE,105,5.8,5.8,77,0.01,CLR,,0.01,WeatherDisplay:10.37,2013-02-25 11:49:00,
2013-02-25 11:54:00,45.4,38.6,30.56,East,99,4.6,4.6,77,0.00,CLR,,0.01,WeatherDisplay:10.37,2013-02-25 11:54:00,
2013-02-25 11:59:00,45.2,38.4,30.56,ENE,63,5.8,5.8,77,0.00,CLR,,0.01,WeatherDisplay:10.37,2013-02-25 11:59:00,
2013-02-25 12:04:00,45.2,38.7,30.56,ESE,107,4.6,4.6,78,0.00,CLR,,0.01,WeatherDisplay:10.37,2013-02-25 12:04:00,
2013-02-25 12:09:00,45.3,39.2,30.56,ESE,108,1.1,1.1,79,0.00,CLR,,0.01,WeatherDisplay:10.37,2013-02-25 12:09:00,
2013-02-25 12:14:00,45.8,39.7,30.56,ESE,107,2.3,2.3,79,0.00,CLR,,0.01,WeatherDisplay:10.37,2013-02-25 12:14:00,
2013-02-25 12:19:00,46.1,39.3,30.56,SE,134,4.6,4.6,77,0.00,CLR,,0.01,WeatherDisplay:10.37,2013-02-25 12:19:00,
2013-02-25 12:24:00,46.5,39.3,30.56,SE,134,4.6,4.6,76,0.00,CLR,,0.01,WeatherDisplay:10.37,2013-02-25 12:24:00,
2013-02-25 12:29:00,46.3,38.8,30.56,SE,132,4.6,4.6,75,0.00,CLR,,0.01,WeatherDisplay:10.37,2013-02-25 12:29:00,
2013-02-25 12:34:00,46.1,39.0,30.56,SE,132,3.0,3.0,76,0.00,CLR,,0.01,WeatherDisplay:10.37,2013-02-25 12:34:00,
2013-02-25 12:39:00,45.8,38.7,30.56,SE,132,3.5,3.5,76,0.00,CLR,,0.01,WeatherDisplay:10.37,2013-02-25 12:39:00,
2013-02-25 12:44:00,45.7,38.9,30.56,East,101,2.3,0.0,77,0.00,CLR,,0.01,WeatherDisplay:10.37,2013-02-25 12:44:00,
2013-02-25 12:50:00,45.4,38.3,30.56,ESE,111,3.5,3.5,76,0.00,CLR,,0.01,WeatherDisplay:10.37,2013-02-25 12:50:00,
2013-02-25 12:55:00,45.3,38.8,30.56,ESE,111,3.5,3.5,78,0.00,CLR,,0.01,WeatherDisplay:10.37,2013-02-25 12:55:00,
2013-02-25 13:00:00,45.6,39.5,30.56,ESE,111,1.1,0.0,79,0.00,CLR,,0.01,WeatherDisplay:10.37,2013-02-25 13:00:00,
2013-02-25 13:05:00,46.3,39.8,30.56,ESE,111,3.5,3.5,78,0.00,CLR,,0.01,WeatherDisplay:10.37,2013-02-25 13:05:00,
2013-02-25 13:11:00,47.1,39.9,30.56,ESE,111,2.3,2.3,76,0.00,CLR,,0.01,WeatherDisplay:10.37,2013-02-25 13:11:00,
2013-02-25 13:16:00,47.7,40.5,30.56,SE,145,5.8,5.8,76,0.00,CLR,,0.01,WeatherDisplay:10.37,2013-02-25 13:16:00,
2013-02-25 13:21:00,48.1,40.2,30.56,ESE,109,4.6,4.6,74,0.00,CLR,,0.01,WeatherDisplay:10.37,2013-02-25 13:21:00,
2013-02-25 13:26:00,48.4,40.1,30.56,East,99,4.6,4.6,73,0.00,CLR,,0.01,WeatherDisplay:10.37,2013-02-25 13:26:00,
2013-02-25 13:31:00,48.7,40.4,30.55,East,99,0.0,0.0,73,0.00,CLR,,0.01,WeatherDisplay:10.37,2013-02-25 13:31:00,
2013-02-25 13:36:00,49.4,41.8,30.55,East,99,2.3,2.3,75,0.00,CLR,,0.01,WeatherDisplay:10.37,2013-02-25 13:36:00,
2013-02-25 13:41:00,50.0,41.0,30.55,East,98,3.0,3.0,71,0.00,CLR,,0.01,WeatherDisplay:10.37,2013-02-25 13:41:00,
2013-02-25 13:46:00,49.8,40.4,30.55,East,86,0.0,0.0,70,0.00,CLR,,0.01,WeatherDisplay:10.37,2013-02-25 13:46:00,
2013-02-25 13:51:00,49.4,40.0,30.55,East,91,4.0,4.0,70,0.00,CLR,,0.01,WeatherDisplay:10.37,2013-02-25 13:51:00,
2013-02-25 13:56:00,48.8,39.1,30.55,ESE,111,6.9,6.9,69,0.00,CLR,,0.01,WeatherDisplay:10.37,2013-02-25 13:56:00,
2013-02-25 14:02:00,48.0,39.0,30.55,East,95,4.6,4.6,71,0.00,CLR,,0.01,WeatherDisplay:10.37,2013-02-25 14:02:00,
2013-02-25 14:07:00,47.4,38.8,30.55,East,98,4.6,4.6,72,0.00,CLR,,0.01,WeatherDisplay:10.37,2013-02-25 14:07:00,
2013-02-25 14:12:00,47.0,38.8,30.55,East,86,5.0,5.0,73,0.00,CLR,,0.01,WeatherDisplay:10.37,2013-02-25 14:12:00,
2013-02-25 14:17:00,46.8,38.9,30.55,East,98,3.5,3.5,74,0.00,CLR,,0.01,WeatherDisplay:10.37,2013-02-25 14:17:00,
2013-02-25 14:22:00,46.6,38.8,30.55,East,99,6.0,6.0,74,0.00,CLR,,0.01,WeatherDisplay:10.37,2013-02-25 14:22:00,
2013-02-25 14:27:00,46.7,39.2,30.55,East,94,4.0,4.0,75,0.00,CLR,,0.01,WeatherDisplay:10.37,2013-02-25 14:27:00,
2013-02-25 14:32:00,47.1,39.2,30.54,East,94,1.1,0.0,74,0.00,CLR,,0.01,WeatherDisplay:10.37,2013-02-25 14:32:00,
2013-02-25 14:37:00,47.2,39.0,30.54,East,87,4.6,4.6,73,0.00,CLR,,0.01,WeatherDisplay:10.37,2013-02-25 14:37:00,
2013-02-25 14:42:00,46.7,38.5,30.54,East,82,3.5,3.5,73,0.00,CLR,,0.01,WeatherDisplay:10.37,2013-02-25 14:42:00,
2013-02-25 14:47:00,46.5,39.0,30.54,East,81,4.0,4.0,75,0.00,CLR,,0.01,WeatherDisplay:10.37,2013-02-25 14:47:00,
2013-02-25 14:52:00,46.8,39.6,30.54,East,80,3.0,3.0,76,0.00,CLR,,0.01,WeatherDisplay:10.37,2013-02-25 14:52:00,
2013-02-25 14:58:00,47.0,39.1,30.54,East,97,4.6,4.6,74,0.00,CLR,,0.01,WeatherDisplay:10.37,2013-02-25 14:58:00,
2013-02-25 15:03:00,47.2,39.7,30.55,East,98,2.3,2.3,75,0.00,CLR,,0.01,WeatherDisplay:10.37,2013-02-25 15:03:00,
2013-02-25 15:08:00,47.7,39.8,30.55,ENE,75,4.6,4.6,74,0.00,CLR,,0.01,WeatherDisplay:10.37,2013-02-25 15:08:00,
2013-02-25 15:13:00,48.2,39.9,30.55,East,80,3.5,3.5,73,0.00,CLR,,0.01,WeatherDisplay:10.37,2013-02-25 15:13:00,
2013-02-25 15:18:00,48.5,39.9,30.55,East,101,5.8,5.8,72,0.00,CLR,,0.01,WeatherDisplay:10.37,2013-02-25 15:18:00,
2013-02-25 15:23:00,48.4,39.8,30.55,East,84,4.0,4.0,72,0.00,CLR,,0.01,WeatherDisplay:10.37,2013-02-25 15:23:00,
2013-02-25 15:28:00,48.1,39.1,30.55,East,79,5.8,5.8,71,0.00,CLR,,0.01,WeatherDisplay:10.37,2013-02-25 15:28:00,
2013-02-25 15:33:00,47.9,39.3,30.54,ESE,107,3.5,3.5,72,0.00,CLR,,0.01,WeatherDisplay:10.37,2013-02-25 15:33:00,
2013-02-25 15:38:00,47.7,39.1,30.54,East,89,4.6,4.6,72,0.00,CLR,,0.01,WeatherDisplay:10.37,2013-02-25 15:38:00,
2013-02-25 15:43:00,47.6,39.4,30.54,ESE,103,3.5,3.5,73,0.00,CLR,,0.01,WeatherDisplay:10.37,2013-02-25 15:43:00,
2013-02-25 15:48:00,47.7,39.5,30.54,ESE,117,6.0,6.0,73,0.00,CLR,,0.01,WeatherDisplay:10.37,2013-02-25 15:48:00,
2013-02-25 15:53:00,47.8,39.9,30.54,ESE,115,6.0,6.0,74,0.00,CLR,,0.01,WeatherDisplay:10.37,2013-02-25 15:53:00,
2013-02-25 15:58:00,47.8,39.6,30.54,SE,129,3.5,3.5,73,0.00,CLR,,0.01,WeatherDisplay:10.37,2013-02-25 15:58:00,
2013-02-25 16:03:00,47.9,39.3,30.55,SE,125,3.5,3.5,72,0.00,CLR,,0.01,WeatherDisplay:10.37,2013-02-25 16:03:00,
2013-02-25 16:08:00,47.9,39.3,30.55,East,98,5.8,5.8,72,0.00,CLR,,0.01,WeatherDisplay:10.37,2013-02-25 16:08:00,
2013-02-25 16:13:00,47.5,38.9,30.55,East,96,5.8,5.8,72,0.00,CLR,,0.01,WeatherDisplay:10.37,2013-02-25 16:13:00,
2013-02-25 16:18:00,47.2,39.0,30.55,East,95,4.0,4.0,73,0.00,CLR,,0.01,WeatherDisplay:10.37,2013-02-25 16:18:00,
2013-02-25 16:23:00,46.8,38.6,30.55,ESE,104,6.9,6.9,73,0.00,CLR,,0.01,WeatherDisplay:10.37,2013-02-25 16:23:00,
2013-02-25 16:28:00,46.3,38.1,30.55,ESE,106,4.6,4.6,73,0.00,CLR,,0.01,WeatherDisplay:10.37,2013-02-25 16:28:00,
2013-02-25 16:33:00,45.8,37.6,30.55,ESE,105,6.9,6.9,73,0.00,CLR,,0.01,WeatherDisplay:10.37,2013-02-25 16:33:00,
2013-02-25 16:38:00,45.2,37.4,30.55,East,87,6.9,6.9,74,0.00,CLR,,0.01,WeatherDisplay:10.37,2013-02-25 16:38:00,
2013-02-25 16:43:00,44.6,37.2,30.55,ESE,103,5.8,5.8,75,0.00,CLR,,0.01,WeatherDisplay:10.37,2013-02-25 16:43:00,
2013-02-25 16:48:00,44.2,37.4,30.55,ENE,65,3.5,3.5,77,0.00,CLR,,0.01,WeatherDisplay:10.37,2013-02-25 16:48:00,
2013-02-25 16:53:00,43.9,37.5,30.55,NE,49,3.5,3.5,78,0.00,CLR,,0.01,WeatherDisplay:10.37,2013-02-25 16:53:00,
2013-02-25 16:58:00,43.6,37.2,30.55,ESE,111,1.1,1.3,78,0.00,CLR,,0.01,WeatherDisplay:10.37,2013-02-25 16:58:00,
2013-02-25 17:03:00,43.4,37.3,30.56,East,80,3.5,3.5,79,0.00,CLR,,0.01,WeatherDisplay:10.37,2013-02-25 17:03:00,
2013-02-25 17:08:00,43.1,37.0,30.56,NNE,30,3.5,3.5,79,0.00,CLR,,0.01,WeatherDisplay:10.37,2013-02-25 17:08:00,
2013-02-25 17:13:00,42.9,37.2,30.56,East,84,2.0,2.0,80,0.00,CLR,,0.01,WeatherDisplay:10.37,2013-02-25 17:13:00,
2013-02-25 17:18:00,42.6,36.9,30.56,East,84,3.5,3.5,80,0.00,CLR,,0.01,WeatherDisplay:10.37,2013-02-25 17:18:00,
2013-02-25 17:23:00,42.4,36.7,30.56,East,83,3.5,3.5,80,0.00,CLR,,0.01,WeatherDisplay:10.37,2013-02-25 17:23:00,
2013-02-25 17:28:00,42.1,36.7,30.56,East,98,4.6,4.6,81,0.00,CLR,,0.01,WeatherDisplay:10.37,2013-02-25 17:28:00,
2013-02-25 17:33:00,41.9,36.8,30.56,East,98,3.5,3.5,82,0.00,CLR,,0.01,WeatherDisplay:10.37,2013-02-25 17:33:00,
2013-02-25 17:38:00,41.6,36.5,30.56,East,98,3.5,3.5,82,0.00,CLR,,0.01,WeatherDisplay:10.37,2013-02-25 17:38:00,
2013-02-25 17:43:00,41.4,36.3,30.56,East,98,2.3,2.3,82,0.00,CLR,,0.01,WeatherDisplay:10.37,2013-02-25 17:43:00,
2013-02-25 17:49:00,41.0,36.2,30.56,East,98,1.0,0.0,83,0.00,CLR,,0.01,WeatherDisplay:10.37,2013-02-25 17:49:00,
2013-02-25 17:54:00,40.7,35.9,30.56,East,98,3.5,3.5,83,0.00,CLR,,0.01,WeatherDisplay:10.37,2013-02-25 17:54:00,
2013-02-25 17:59:00,40.5,35.7,30.56,East,99,3.5,3.5,83,0.00,CLR,,0.01,WeatherDisplay:10.37,2013-02-25 17:59:00,
2013-02-25 18:04:00,40.2,35.8,30.56,East,98,3.5,3.5,84,0.00,CLR,,0.01,WeatherDisplay:10.37,2013-02-25 18:04:00,
2013-02-25 18:09:00,40.0,35.6,30.56,East,99,3.5,3.5,84,0.00,CLR,,0.01,WeatherDisplay:10.37,2013-02-25 18:09:00,
2013-02-25 18:14:00,39.7,35.6,30.57,East,99,0.0,0.4,85,0.00,CLR,,0.01,WeatherDisplay:10.37,2013-02-25 18:14:00,
2013-02-25 18:19:00,39.4,35.3,30.57,East,98,1.1,1.1,85,0.00,CLR,,0.01,WeatherDisplay:10.37,2013-02-25 18:19:00,
2013-02-25 18:24:00,39.1,35.0,30.57,East,99,0.0,0.0,85,0.00,CLR,,0.01,WeatherDisplay:10.37,2013-02-25 18:24:00,
2013-02-25 18:29:00,38.8,34.7,30.57,East,98,0.0,0.1,85,0.00,CLR,,0.01,WeatherDisplay:10.37,2013-02-25 18:29:00,
2013-02-25 18:34:00,38.6,34.5,30.57,East,98,2.3,2.3,85,0.00,CLR,,0.01,WeatherDisplay:10.37,2013-02-25 18:34:00,
2013-02-25 18:39:00,38.3,34.5,30.57,East,99,0.0,0.0,86,0.00,CLR,,0.01,WeatherDisplay:10.37,2013-02-25 18:39:00,
2013-02-25 18:44:00,38.0,34.2,30.57,East,99,0.0,0.0,86,0.00,CLR,,0.01,WeatherDisplay:10.37,2013-02-25 18:44:00,
2013-02-25 18:49:00,37.8,34.0,30.57,East,99,0.0,0.0,86,0.00,CLR,,0.01,WeatherDisplay:10.37,2013-02-25 18:49:00,
2013-02-25 18:54:00,37.5,33.7,30.57,East,99,0.0,0.0,86,0.00,CLR,,0.01,WeatherDisplay:10.37,2013-02-25 18:54:00,
2013-02-25 18:59:00,37.3,33.5,30.57,East,98,1.1,1.1,86,0.00,CLR,,0.01,WeatherDisplay:10.37,2013-02-25 18:59:00,
2013-02-25 19:04:00,37.1,33.6,30.57,East,99,2.3,2.3,87,0.00,CLR,,0.01,WeatherDisplay:10.37,2013-02-25 19:04:00,
2013-02-25 19:09:00,36.9,33.4,30.57,East,99,3.5,3.5,87,0.00,CLR,,0.01,WeatherDisplay:10.37,2013-02-25 19:09:00,
2013-02-25 19:14:00,36.7,33.5,30.58,East,99,0.0,0.0,88,0.00,CLR,,0.01,WeatherDisplay:10.37,2013-02-25 19:14:00,
2013-02-25 19:19:00,36.5,33.3,30.58,East,98,0.0,0.0,88,0.00,CLR,,0.01,WeatherDisplay:10.37,2013-02-25 19:19:00,
2013-02-25 19:24:00,36.3,33.1,30.58,East,98,0.0,0.0,88,0.00,CLR,,0.01,WeatherDisplay:10.37,2013-02-25 19:24:00,
2013-02-25 19:29:00,36.2,33.0,30.58,East,99,0.0,0.0,88,0.00,CLR,,0.01,WeatherDisplay:10.37,2013-02-25 19:29:00,
2013-02-25 19:34:00,36.0,32.8,30.58,East,99,0.0,0.0,88,0.00,CLR,,0.01,WeatherDisplay:10.37,2013-02-25 19:34:00,
2013-02-25 19:39:00,35.8,32.6,30.58,East,98,1.1,0.0,88,0.00,CLR,,0.01,WeatherDisplay:10.37,2013-02-25 19:39:00,
2013-02-25 19:44:00,35.6,32.7,30.58,East,98,0.0,0.0,89,0.00,CLR,,0.01,WeatherDisplay:10.37,2013-02-25 19:44:00,
2013-02-25 19:49:00,35.3,32.1,30.58,East,98,0.0,0.0,88,0.00,CLR,,0.01,WeatherDisplay:10.37,2013-02-25 19:49:00,
2013-02-25 19:55:00,35.1,32.2,30.58,East,98,0.0,0.0,89,0.00,CLR,,0.01,WeatherDisplay:10.37,2013-02-25 19:55:00,
2013-02-25 20:00:00,34.9,32.0,30.59,East,98,0.0,0.0,89,0.00,CLR,,0.01,WeatherDisplay:10.37,2013-02-25 20:00:00,
2013-02-25 20:05:00,34.7,31.8,30.59,East,98,0.0,0.0,89,0.00,CLR,,0.01,WeatherDisplay:10.37,2013-02-25 20:05:00,
2013-02-25 20:10:00,34.4,31.8,30.59,East,98,0.0,0.0,90,0.00,CLR,,0.01,WeatherDisplay:10.37,2013-02-25 20:10:00,
2013-02-25 20:15:00,34.2,31.6,30.59,East,98,0.0,0.0,90,0.00,CLR,,0.01,WeatherDisplay:10.37,2013-02-25 20:15:00,
2013-02-25 20:20:00,34.1,31.5,30.59,East,98,0.0,0.0,90,0.00,CLR,,0.01,WeatherDisplay:10.37,2013-02-25 20:20:00,
2013-02-25 20:25:00,33.8,31.2,30.59,East,99,0.0,0.0,90,0.00,CLR,,0.01,WeatherDisplay:10.37,2013-02-25 20:25:00,
2013-02-25 20:30:00,33.7,31.1,30.59,East,99,1.1,1.1,90,0.00,CLR,,0.01,WeatherDisplay:10.37,2013-02-25 20:30:00,
2013-02-25 20:35:00,33.6,31.0,30.59,East,98,0.0,0.0,90,0.00,CLR,,0.01,WeatherDisplay:10.37,2013-02-25 20:35:00,
2013-02-25 20:40:00,33.5,31.2,30.59,East,99,0.0,0.0,91,0.00,CLR,,0.01,WeatherDisplay:10.37,2013-02-25 20:40:00,
2013-02-25 20:45:00,33.4,31.1,30.59,East,98,1.1,1.1,91,0.00,CLR,,0.01,WeatherDisplay:10.37,2013-02-25 20:45:00,
2013-02-25 20:50:00,33.4,31.1,30.59,East,99,2.3,2.3,91,0.00,CLR,,0.01,WeatherDisplay:10.37,2013-02-25 20:50:00,
2013-02-25 20:56:00,33.2,30.9,30.59,East,98,0.0,0.0,91,0.00,CLR,,0.01,WeatherDisplay:10.37,2013-02-25 20:56:00,
2013-02-25 21:01:00,33.2,30.9,30.59,East,99,0.0,0.0,91,0.00,CLR,,0.01,WeatherDisplay:10.37,2013-02-25 21:01:00,
2013-02-25 21:06:00,33.0,30.7,30.59,East,98,1.0,1.0,91,0.00,CLR,,0.01,WeatherDisplay:10.37,2013-02-25 21:06:00,
2013-02-25 21:11:00,32.8,30.5,30.59,East,98,2.3,2.3,91,0.00,CLR,,0.01,WeatherDisplay:10.37,2013-02-25 21:11:00,
2013-02-25 21:16:00,32.8,30.7,30.59,East,98,0.0,0.0,92,0.00,CLR,,0.01,WeatherDisplay:10.37,2013-02-25 21:16:00,
2013-02-25 21:21:00,32.9,30.8,30.59,East,98,0.0,0.0,92,0.00,CLR,,0.01,WeatherDisplay:10.37,2013-02-25 21:21:00,
2013-02-25 21:26:00,32.8,30.7,30.59,East,98,0.0,0.0,92,0.00,CLR,,0.01,WeatherDisplay:10.37,2013-02-25 21:26:00,
2013-02-25 21:31:00,32.8,30.7,30.60,East,98,0.0,0.0,92,0.00,CLR,,0.01,WeatherDisplay:10.37,2013-02-25 21:31:00,
2013-02-25 21:36:00,32.6,30.5,30.60,East,99,0.0,0.0,92,0.00,CLR,,0.01,WeatherDisplay:10.37,2013-02-25 21:36:00,
2013-02-25 21:41:00,32.5,30.4,30.60,East,99,0.0,0.0,92,0.00,CLR,,0.01,WeatherDisplay:10.37,2013-02-25 21:41:00,
2013-02-25 21:46:00,32.3,30.2,30.60,East,98,0.0,0.0,92,0.00,CLR,,0.01,WeatherDisplay:10.37,2013-02-25 21:46:00,
2013-02-25 21:52:00,32.1,29.8,30.60,East,98,0.0,0.0,91,0.00,CLR,,0.01,WeatherDisplay:10.37,2013-02-25 21:52:00,
2013-02-25 21:57:00,32.0,29.7,30.60,East,98,0.0,0.0,91,0.00,CLR,,0.01,WeatherDisplay:10.37,2013-02-25 21:57:00,
2013-02-25 22:02:00,31.8,29.7,30.60,East,98,0.0,0.0,92,0.00,CLR,,0.01,WeatherDisplay:10.37,2013-02-25 22:02:00,
2013-02-25 22:07:00,31.7,29.6,30.60,East,98,0.0,0.0,92,0.00,CLR,,0.01,WeatherDisplay:10.37,2013-02-25 22:07:00,
2013-02-25 22:12:00,31.6,29.5,30.60,East,98,0.0,0.1,92,0.00,CLR,,0.01,WeatherDisplay:10.37,2013-02-25 22:12:00,
2013-02-25 22:17:00,31.5,29.4,30.60,East,98,1.1,1.1,92,0.00,CLR,,0.01,WeatherDisplay:10.37,2013-02-25 22:17:00,
2013-02-25 22:22:00,31.4,29.3,30.60,East,98,1.1,1.1,92,0.00,CLR,,0.01,WeatherDisplay:10.37,2013-02-25 22:22:00,
2013-02-25 22:27:00,31.4,29.6,30.60,East,99,0.0,0.0,93,0.00,CLR,,0.01,WeatherDisplay:10.37,2013-02-25 22:27:00,
2013-02-25 22:32:00,31.4,29.6,30.60,East,98,0.0,0.0,93,0.00,CLR,,0.01,WeatherDisplay:10.37,2013-02-25 22:32:00,
2013-02-25 22:38:00,31.4,29.6,30.60,East,98,1.1,0.0,93,0.00,CLR,,0.01,WeatherDisplay:10.37,2013-02-25 22:38:00,
2013-02-25 22:43:00,31.3,29.5,30.60,East,98,0.0,0.0,93,0.00,CLR,,0.01,WeatherDisplay:10.37,2013-02-25 22:43:00,
2013-02-25 22:48:00,31.2,29.4,30.60,East,98,0.0,0.0,93,0.00,CLR,,0.01,WeatherDisplay:10.37,2013-02-25 22:48:00,
2013-02-25 22:53:00,31.2,29.4,30.60,East,98,0.0,0.0,93,0.00,CLR,,0.01,WeatherDisplay:10.37,2013-02-25 22:53:00,
2013-02-25 22:59:00,31.2,29.4,30.61,East,98,0.0,0.0,93,0.00,CLR,,0.01,WeatherDisplay:10.37,2013-02-25 22:59:00,
2013-02-25 23:04:00,31.2,29.4,30.61,East,98,0.0,0.0,93,0.00,CLR,,0.01,WeatherDisplay:10.37,2013-02-25 23:04:00,
2013-02-25 23:09:00,31.4,29.9,30.61,East,98,0.0,0.0,94,0.00,CLR,,0.01,WeatherDisplay:10.37,2013-02-25 23:09:00,
2013-02-25 23:15:00,31.5,30.0,30.61,East,98,2.3,2.3,94,0.00,CLR,,0.01,WeatherDisplay:10.37,2013-02-25 23:15:00,
2013-02-25 23:20:00,31.6,30.1,30.61,East,99,1.1,0.0,94,0.00,CLR,,0.01,WeatherDisplay:10.37,2013-02-25 23:20:00,
2013-02-25 23:25:00,31.8,30.3,30.61,East,98,1.1,0.0,94,0.00,CLR,,0.01,WeatherDisplay:10.37,2013-02-25 23:25:00,
2013-02-25 23:30:00,31.9,30.4,30.61,East,99,0.0,0.4,94,0.00,CLR,,0.01,WeatherDisplay:10.37,2013-02-25 23:30:00,
2013-02-25 23:35:00,32.2,30.7,30.61,East,98,1.1,0.0,94,0.00,CLR,,0.01,WeatherDisplay:10.37,2013-02-25 23:35:00,
2013-02-25 23:40:00,32.4,30.9,30.61,East,99,1.1,1.1,94,0.00,CLR,,0.01,WeatherDisplay:10.37,2013-02-25 23:40:00,
2013-02-25 23:46:00,32.6,31.1,30.61,East,99,1.1,0.0,94,0.00,CLR,,0.01,WeatherDisplay:10.37,2013-02-25 23:46:00,
2013-02-25 23:51:00,32.8,31.3,30.61,East,98,2.3,2.3,94,0.00,CLR,,0.01,WeatherDisplay:10.37,2013-02-25 23:51:00,
2013-02-25 23:56:00,32.9,31.4,30.61,East,99,1.1,1.1,94,0.00,CLR,,0.01,WeatherDisplay:10.37,2013-02-25 23:56:00,